createdAt,value
2022-12-15T00:02:11.927Z,0.70
2022-12-15T00:12:11.921Z,0.20
2022-12-15T00:22:11.995Z,0.30
2022-12-15T00:32:12.497Z,0.20
2022-12-15T00:42:11.493Z,2.00
2022-12-15T00:52:11.495Z,0.30
2022-12-15T01:02:11.572Z,0.20
2022-12-15T01:12:11.537Z,0.10
2022-12-15T01:22:11.097Z,0.40
2022-12-15T01:32:11.179Z,0.50
2022-12-15T01:42:11.218Z,6.80
2022-12-15T01:52:11.169Z,1.00
2022-12-15T02:02:10.852Z,0.60
2022-12-15T02:12:10.770Z,3.30
2022-12-15T02:22:12.219Z,1.20
2022-12-15T02:32:10.502Z,0.30
2022-12-15T02:42:10.477Z,1.30
2022-12-15T02:52:10.582Z,2.00
2022-12-15T03:02:10.716Z,1.40
2022-12-15T03:12:10.244Z,0.20
2022-12-15T03:22:09.973Z,0.50
2022-12-15T03:32:10.396Z,0.10
2022-12-15T03:42:10.033Z,0.20
2022-12-15T03:52:09.588Z,0.60
2022-12-15T04:02:09.726Z,0.40
2022-12-15T04:12:09.575Z,0.10
2022-12-15T04:22:13.726Z,0.60
2022-12-15T04:32:10.610Z,0.20
2022-12-15T04:42:12.103Z,1.40
2022-12-15T04:52:10.803Z,0.10
2022-12-15T05:02:10.080Z,5.80
2022-12-15T05:12:10.789Z,0.50
2022-12-15T05:22:10.365Z,0.10
2022-12-15T05:32:09.474Z,0.20
2022-12-15T05:42:10.353Z,2.00
2022-12-15T05:52:10.437Z,1.20
2022-12-15T06:02:10.156Z,0.40
2022-12-15T06:12:09.497Z,0.90
2022-12-15T06:22:08.397Z,1.40
2022-12-15T06:32:08.507Z,3.80
2022-12-15T06:42:08.110Z,10.80
2022-12-15T06:52:08.229Z,15.90
2022-12-15T07:02:08.454Z,0.10
2022-12-15T07:12:08.116Z,0.70
2022-12-15T07:22:07.796Z,1.60
2022-12-15T07:32:08.033Z,0.20
2022-12-15T07:42:07.980Z,3.50
2022-12-15T07:52:07.793Z,0.10
2022-12-15T08:02:08.785Z,1.50
2022-12-15T08:12:07.460Z,3.30
2022-12-15T08:22:07.318Z,0.60
2022-12-15T08:32:07.168Z,1.50
2022-12-15T08:42:07.123Z,1.60
2022-12-15T08:52:06.883Z,5.10
2022-12-15T09:02:07.390Z,1.90
2022-12-15T09:12:07.974Z,1.80
2022-12-15T09:22:06.567Z,4.90
2022-12-15T09:32:13.676Z,2.30
2022-12-15T09:42:06.803Z,4.90
2022-12-15T09:52:10.920Z,5.20
2022-12-15T10:02:06.841Z,10.60
2022-12-15T10:12:06.244Z,12.00
2022-12-15T10:22:06.113Z,6.80
2022-12-15T10:32:06.887Z,10.40
2022-12-15T10:42:06.637Z,9.20
2022-12-15T10:52:05.852Z,9.80
2022-12-15T11:02:05.861Z,12.20
2022-12-15T11:17:57.147Z,12.50
2022-12-15T11:35:38.685Z,11.70
2022-12-15T11:46:04.712Z,13.90
2022-12-15T11:56:04.500Z,13.50
2022-12-15T12:06:05.767Z,10.80
2022-12-15T12:16:05.541Z,11.60
2022-12-15T12:26:04.298Z,10.20
2022-12-15T12:36:03.414Z,8.90
2022-12-15T12:46:03.994Z,11.50
2022-12-15T12:56:04.130Z,8.10
2022-12-15T13:06:03.828Z,10.40
2022-12-15T13:16:04.005Z,7.80
2022-12-15T13:26:03.610Z,5.50
2022-12-15T13:36:04.860Z,11.90
2022-12-15T13:46:04.827Z,7.50
2022-12-15T13:56:05.077Z,11.00
2022-12-15T14:06:03.807Z,12.10
2022-12-15T14:16:04.573Z,7.10
2022-12-15T14:26:03.164Z,5.90
2022-12-15T14:36:04.082Z,7.70
2022-12-15T14:46:04.891Z,9.10
2022-12-15T14:56:04.135Z,8.00
2022-12-15T15:06:04.380Z,5.70
2022-12-15T15:16:03.848Z,8.00
2022-12-15T15:26:04.063Z,6.80
2022-12-15T15:36:03.144Z,5.80
2022-12-15T15:46:02.939Z,3.00
2022-12-15T15:56:03.637Z,4.00
2022-12-15T16:06:05.838Z,6.90
2022-12-15T16:16:03.045Z,5.10
2022-12-15T16:26:02.374Z,6.10
2022-12-15T16:36:03.326Z,3.20
2022-12-15T16:46:03.080Z,4.00
2022-12-15T16:56:01.711Z,5.10
2022-12-15T17:06:01.375Z,6.00
2022-12-15T17:16:03.027Z,6.50
2022-12-15T17:26:22.568Z,4.30
2022-12-15T17:36:01.387Z,4.10
2022-12-15T17:46:01.150Z,7.50
2022-12-15T17:56:01.101Z,5.30
2022-12-15T18:06:00.705Z,2.80
2022-12-15T18:16:01.060Z,8.50
2022-12-15T18:26:03.184Z,4.00
2022-12-15T18:36:00.444Z,2.70
2022-12-15T18:46:00.611Z,6.80
2022-12-15T18:56:01.256Z,3.10
2022-12-15T19:06:00.448Z,6.00
2022-12-15T19:16:00.536Z,6.30
2022-12-15T19:26:00.073Z,8.70
2022-12-15T19:36:00.093Z,6.00
2022-12-15T19:46:00.214Z,3.40
2022-12-15T19:55:59.692Z,2.40
2022-12-15T20:06:01.219Z,5.40
2022-12-15T20:15:59.732Z,3.30
2022-12-15T20:25:59.771Z,5.10
2022-12-15T20:35:59.332Z,4.00
2022-12-15T20:45:59.433Z,4.40
2022-12-15T20:55:59.368Z,6.10
2022-12-15T21:06:00.821Z,5.40
2022-12-15T21:16:00.665Z,6.80
2022-12-15T21:25:59.376Z,2.40
2022-12-15T21:35:59.635Z,3.00
2022-12-15T21:46:00.557Z,2.00
2022-12-15T21:55:59.862Z,3.50
2022-12-15T22:06:00.400Z,5.30
2022-12-15T22:15:58.434Z,3.60
2022-12-15T22:25:58.427Z,2.30
2022-12-15T22:35:58.433Z,5.60
2022-12-15T22:45:58.105Z,0.20
2022-12-15T22:55:59.150Z,2.00
2022-12-15T23:05:58.153Z,1.20
2022-12-15T23:15:58.066Z,1.80
2022-12-15T23:25:58.067Z,4.50
2022-12-15T23:35:57.567Z,5.90
2022-12-15T23:45:57.729Z,3.60
2022-12-15T23:55:57.389Z,1.60
